Terminal Aerodrome Forecast
Issued by NWS Wilmington, NC

Home | Current Version | Previous Version | Text Only | Print | Product List | Glossary On
Versions: 1 2 3 4 5 6 7 8 9 10 11 12 13 14 15 16 17 18 19
000
FTUS42 KILM 171722
TAFILM
TAF
KILM 171722Z 1718/1818 10007KT P6SM OVC015
     FM172100 10007KT 6SM BR OVC009
     FM180000 17005KT 4SM BR OVC005
     FM180300 21007KT P6SM SCT005 SCT035 BKN080
     FM180900 32005KT P6SM BKN008
     FM181100 35009KT P6SM BKN070=

USA.gov is the U.S. government's official web portal to all federal, state and local government web resources and services.